VLG4VL LEMG-LEBL
Flight info
| Callsign | VLG4VL |
|---|---|
| Flight time | 1h 8m |
| Altitude | 36000 |
| Route | RIXUR M445 PEPAS DCT ARPEX M445 BEGOX N860 VLC L34 CASIM N608 MATEX |
| Aircraft | A320/M-SDE3FGHIRWY/LB1 |
Departure
| Time | 2026-05-06 13:02 |
|---|---|
| Airport | Málaga-Costa del Sol Airport (LEMG) |
Arrival
| Time | 2026-05-06 14:11 |
|---|---|
| Airport | Josep Tarradellas Barcelona-El Prat Airport (LEBL) |
| Time | Latitude | Longitude | Altitude | Speed | Heading |
|---|---|---|---|---|---|
| 2026-05-06 12:39 | 36.67490 | -4.49176 | 42 ft | 0 kts | 332° |
| 2026-05-06 12:53 | 36.67474 | -4.49167 | 42 ft | 4 kts | 343° |
| 2026-05-06 12:53 | 36.67448 | -4.49161 | 42 ft | 4 kts | 4° |
| 2026-05-06 12:53 | 36.67422 | -4.49167 | 41 ft | 4 kts | 22° |
| 2026-05-06 12:54 | 36.67398 | -4.49183 | 41 ft | 4 kts | 36° |
| 2026-05-06 12:54 | 36.67378 | -4.49205 | 39 ft | 4 kts | 45° |
| 2026-05-06 12:54 | 36.67359 | -4.49229 | 39 ft | 4 kts | 45° |
| 2026-05-06 12:54 | 36.67339 | -4.49248 | 41 ft | 4 kts | 9° |
| 2026-05-06 12:55 | 36.67323 | -4.49244 | 41 ft | 4 kts | 307° |
| 2026-05-06 12:55 | 36.67319 | -4.49226 | 38 ft | 2 kts | 309° |
| 2026-05-06 12:55 | 36.67318 | -4.49224 | 38 ft | 0 kts | 310° |
| 2026-05-06 12:57 | 36.67321 | -4.49229 | 40 ft | 2 kts | 310° |
| 2026-05-06 12:57 | 36.67338 | -4.49258 | 42 ft | 7 kts | 300° |
| 2026-05-06 12:57 | 36.67333 | -4.49339 | 42 ft | 13 kts | 213° |
| 2026-05-06 12:58 | 36.67358 | -4.49430 | 43 ft | 16 kts | 312° |
| 2026-05-06 12:58 | 36.67446 | -4.49551 | 42 ft | 22 kts | 310° |
| 2026-05-06 12:58 | 36.67563 | -4.49715 | 42 ft | 26 kts | 311° |
| 2026-05-06 12:58 | 36.67681 | -4.49882 | 43 ft | 26 kts | 312° |
| 2026-05-06 12:59 | 36.67796 | -4.50042 | 44 ft | 23 kts | 312° |
| 2026-05-06 12:59 | 36.67909 | -4.50200 | 45 ft | 26 kts | 311° |
| 2026-05-06 12:59 | 36.68036 | -4.50378 | 44 ft | 24 kts | 311° |
| 2026-05-06 12:59 | 36.68153 | -4.50544 | 44 ft | 24 kts | 311° |
| 2026-05-06 13:00 | 36.68269 | -4.50704 | 45 ft | 25 kts | 311° |
| 2026-05-06 13:00 | 36.68382 | -4.50864 | 49 ft | 25 kts | 311° |
| 2026-05-06 13:00 | 36.68479 | -4.51000 | 53 ft | 18 kts | 312° |
| 2026-05-06 13:00 | 36.68497 | -4.51111 | 51 ft | 15 kts | 253° |
| 2026-05-06 13:01 | 36.68453 | -4.51218 | 57 ft | 10 kts | 219° |
| 2026-05-06 13:01 | 36.68405 | -4.51189 | 57 ft | 6 kts | 135° |
| 2026-05-06 13:01 | 36.68404 | -4.51188 | 58 ft | 3 kts | 135° |
| 2026-05-06 13:01 | 36.68208 | -4.50915 | 57 ft | 80 kts | 131° |
| 2026-05-06 13:02 | 36.67701 | -4.50205 | 52 ft | 136 kts | 131° |
| 2026-05-06 13:02 | 36.66992 | -4.49212 | 316 ft | 161 kts | 132° |
| 2026-05-06 13:02 | 36.66241 | -4.48131 | 945 ft | 170 kts | 132° |
| 2026-05-06 13:02 | 36.65440 | -4.46955 | 1525 ft | 188 kts | 133° |
| 2026-05-06 13:03 | 36.64570 | -4.45665 | 2065 ft | 200 kts | 131° |
| 2026-05-06 13:03 | 36.63654 | -4.44287 | 2534 ft | 216 kts | 130° |
| 2026-05-06 13:03 | 36.62667 | -4.42749 | 3057 ft | 237 kts | 129° |
| 2026-05-06 13:03 | 36.61558 | -4.41139 | 3709 ft | 252 kts | 133° |
| 2026-05-06 13:04 | 36.60425 | -4.39530 | 4869 ft | 244 kts | 124° |
| 2026-05-06 13:04 | 36.59739 | -4.37614 | 5878 ft | 243 kts | 105° |
| 2026-05-06 13:04 | 36.59325 | -4.35572 | 6817 ft | 245 kts | 103° |
| 2026-05-06 13:04 | 36.58956 | -4.33478 | 7632 ft | 251 kts | 103° |
| 2026-05-06 13:05 | 36.58602 | -4.31349 | 8419 ft | 257 kts | 103° |
| 2026-05-06 13:05 | 36.58255 | -4.29144 | 9269 ft | 262 kts | 98° |
| 2026-05-06 13:05 | 36.58250 | -4.26817 | 9859 ft | 281 kts | 85° |
| 2026-05-06 13:05 | 36.58448 | -4.24300 | 10279 ft | 300 kts | 85° |
| 2026-05-06 13:06 | 36.58660 | -4.21680 | 10990 ft | 307 kts | 84° |
| 2026-05-06 13:06 | 36.58874 | -4.19018 | 11782 ft | 311 kts | 85° |
| 2026-05-06 13:06 | 36.59084 | -4.16323 | 12579 ft | 315 kts | 85° |
| 2026-05-06 13:06 | 36.59222 | -4.14517 | 13108 ft | 318 kts | 85° |
| 2026-05-06 13:07 | 36.59428 | -4.11767 | 13888 ft | 321 kts | 85° |
| 2026-05-06 13:07 | 36.59704 | -4.08991 | 14571 ft | 326 kts | 78° |
| 2026-05-06 13:07 | 36.60410 | -4.06296 | 15244 ft | 330 kts | 64° |
| 2026-05-06 13:07 | 36.61541 | -4.03799 | 15922 ft | 334 kts | 58° |
| 2026-05-06 13:08 | 36.62754 | -4.01314 | 16602 ft | 338 kts | 58° |
| 2026-05-06 13:08 | 36.64073 | -3.98877 | 17262 ft | 342 kts | 49° |
| 2026-05-06 13:08 | 36.65762 | -3.96776 | 17776 ft | 350 kts | 37° |
| 2026-05-06 13:08 | 36.67848 | -3.95070 | 17913 ft | 368 kts | 27° |
| 2026-05-06 13:09 | 36.70128 | -3.93440 | 18096 ft | 386 kts | 28° |
| 2026-05-06 13:09 | 36.72478 | -3.91751 | 18519 ft | 394 kts | 28° |
| 2026-05-06 13:09 | 36.74862 | -3.90024 | 19036 ft | 399 kts | 28° |
| 2026-05-06 13:09 | 36.77276 | -3.88267 | 19592 ft | 404 kts | 28° |
| 2026-05-06 13:10 | 36.79712 | -3.86489 | 20145 ft | 408 kts | 27° |
| 2026-05-06 13:10 | 36.82177 | -3.84690 | 20686 ft | 413 kts | 27° |
| 2026-05-06 13:10 | 36.84670 | -3.82869 | 21213 ft | 417 kts | 27° |
| 2026-05-06 13:10 | 36.87188 | -3.81029 | 21717 ft | 422 kts | 27° |
| 2026-05-06 13:11 | 36.89737 | -3.79169 | 22180 ft | 427 kts | 27° |
| 2026-05-06 13:11 | 36.92275 | -3.77317 | 22694 ft | 431 kts | 27° |
| 2026-05-06 13:11 | 36.94874 | -3.75417 | 23203 ft | 435 kts | 27° |
| 2026-05-06 13:11 | 36.97500 | -3.73493 | 23676 ft | 439 kts | 27° |
| 2026-05-06 13:12 | 37.00144 | -3.71553 | 24081 ft | 443 kts | 27° |
| 2026-05-06 13:12 | 37.02810 | -3.69594 | 24508 ft | 446 kts | 27° |
| 2026-05-06 13:12 | 37.05494 | -3.67623 | 24915 ft | 449 kts | 27° |
| 2026-05-06 13:12 | 37.08198 | -3.65637 | 25326 ft | 452 kts | 27° |
| 2026-05-06 13:13 | 37.10830 | -3.63425 | 25722 ft | 459 kts | 36° |
| 2026-05-06 13:13 | 37.13197 | -3.60707 | 26118 ft | 465 kts | 44° |
| 2026-05-06 13:13 | 37.15449 | -3.57775 | 26515 ft | 468 kts | 44° |
| 2026-05-06 13:13 | 37.17715 | -3.54829 | 26905 ft | 471 kts | 44° |
| 2026-05-06 13:14 | 37.20006 | -3.51862 | 27318 ft | 474 kts | 44° |
| 2026-05-06 13:14 | 37.22309 | -3.48891 | 27724 ft | 477 kts | 44° |
| 2026-05-06 13:14 | 37.24632 | -3.45898 | 28117 ft | 480 kts | 44° |
| 2026-05-06 13:14 | 37.26970 | -3.42880 | 28484 ft | 483 kts | 44° |
| 2026-05-06 13:15 | 37.29317 | -3.39840 | 28862 ft | 487 kts | 44° |
| 2026-05-06 13:15 | 37.31682 | -3.36772 | 29249 ft | 490 kts | 44° |
| 2026-05-06 13:15 | 37.34060 | -3.33682 | 29625 ft | 493 kts | 44° |
| 2026-05-06 13:15 | 37.36450 | -3.30571 | 29988 ft | 496 kts | 44° |
| 2026-05-06 13:16 | 37.38852 | -3.27440 | 30288 ft | 499 kts | 44° |
| 2026-05-06 13:16 | 37.41271 | -3.24283 | 30599 ft | 502 kts | 44° |
| 2026-05-06 13:16 | 37.43692 | -3.21123 | 31046 ft | 502 kts | 44° |
| 2026-05-06 13:16 | 37.46116 | -3.17960 | 31458 ft | 502 kts | 44° |
| 2026-05-06 13:17 | 37.48542 | -3.14795 | 31865 ft | 503 kts | 44° |
| 2026-05-06 13:17 | 37.50970 | -3.11624 | 32296 ft | 503 kts | 44° |
| 2026-05-06 13:17 | 37.53396 | -3.08449 | 32717 ft | 503 kts | 44° |
| 2026-05-06 13:17 | 37.55823 | -3.05263 | 33133 ft | 504 kts | 44° |
| 2026-05-06 13:18 | 37.58245 | -3.02077 | 33579 ft | 504 kts | 44° |
| 2026-05-06 13:18 | 37.60669 | -2.98888 | 33997 ft | 504 kts | 44° |
| 2026-05-06 13:18 | 37.63094 | -2.95696 | 34389 ft | 503 kts | 44° |
| 2026-05-06 13:18 | 37.65485 | -2.92549 | 34773 ft | 503 kts | 44° |
| 2026-05-06 13:19 | 37.67903 | -2.89364 | 35163 ft | 502 kts | 44° |
| 2026-05-06 13:19 | 37.70316 | -2.86186 | 35602 ft | 501 kts | 44° |
| 2026-05-06 13:19 | 37.72727 | -2.83009 | 35856 ft | 501 kts | 44° |
| 2026-05-06 13:20 | 37.77558 | -2.76627 | 35913 ft | 504 kts | 44° |
| 2026-05-06 13:20 | 37.82398 | -2.70210 | 35926 ft | 504 kts | 44° |
| 2026-05-06 13:21 | 37.87237 | -2.63787 | 35928 ft | 504 kts | 44° |
| 2026-05-06 13:21 | 37.92076 | -2.57354 | 35933 ft | 504 kts | 44° |
| 2026-05-06 13:22 | 37.96903 | -2.50916 | 35945 ft | 504 kts | 44° |
| 2026-05-06 13:22 | 38.01729 | -2.44468 | 35948 ft | 504 kts | 44° |
| 2026-05-06 13:23 | 38.06563 | -2.38013 | 35955 ft | 505 kts | 44° |
| 2026-05-06 13:23 | 38.11395 | -2.31548 | 35952 ft | 505 kts | 44° |
| 2026-05-06 13:24 | 38.16215 | -2.25068 | 35950 ft | 504 kts | 44° |
| 2026-05-06 13:24 | 38.20999 | -2.18540 | 35979 ft | 506 kts | 48° |
| 2026-05-06 13:25 | 38.25369 | -2.11521 | 35974 ft | 506 kts | 50° |
| 2026-05-06 13:25 | 38.29728 | -2.04483 | 35973 ft | 506 kts | 50° |
| 2026-05-06 13:26 | 38.34049 | -1.97485 | 35966 ft | 506 kts | 50° |
| 2026-05-06 13:26 | 38.38399 | -1.90432 | 35965 ft | 506 kts | 50° |
| 2026-05-06 13:27 | 38.42745 | -1.83367 | 35967 ft | 506 kts | 50° |
| 2026-05-06 13:27 | 38.47085 | -1.76287 | 35961 ft | 507 kts | 50° |
| 2026-05-06 13:28 | 38.51421 | -1.69199 | 35960 ft | 507 kts | 50° |
| 2026-05-06 13:28 | 38.55764 | -1.62103 | 35953 ft | 507 kts | 50° |
| 2026-05-06 13:29 | 38.60098 | -1.54998 | 35956 ft | 507 kts | 50° |
| 2026-05-06 13:29 | 38.64422 | -1.47876 | 35954 ft | 507 kts | 50° |
| 2026-05-06 13:30 | 38.68747 | -1.40751 | 35971 ft | 507 kts | 50° |
| 2026-05-06 13:30 | 38.73066 | -1.33624 | 35967 ft | 506 kts | 50° |
| 2026-05-06 13:31 | 38.77381 | -1.26485 | 35968 ft | 507 kts | 50° |
| 2026-05-06 13:31 | 38.81696 | -1.19350 | 35963 ft | 506 kts | 50° |
| 2026-05-06 13:32 | 38.86005 | -1.12203 | 35952 ft | 506 kts | 51° |
| 2026-05-06 13:32 | 38.90266 | -1.05086 | 35982 ft | 506 kts | 51° |
| 2026-05-06 13:33 | 38.94558 | -0.97912 | 35972 ft | 506 kts | 50° |
| 2026-05-06 13:33 | 38.98850 | -0.90745 | 35967 ft | 506 kts | 50° |
| 2026-05-06 13:34 | 39.03143 | -0.83561 | 35968 ft | 506 kts | 51° |
| 2026-05-06 13:34 | 39.07968 | -0.77062 | 35969 ft | 500 kts | 34° |
| 2026-05-06 13:35 | 39.13829 | -0.72425 | 35982 ft | 493 kts | 23° |
| 2026-05-06 13:35 | 39.19887 | -0.68260 | 35975 ft | 494 kts | 23° |
| 2026-05-06 13:36 | 39.25943 | -0.64069 | 35970 ft | 494 kts | 23° |
| 2026-05-06 13:36 | 39.31993 | -0.59866 | 35974 ft | 494 kts | 23° |
| 2026-05-06 13:37 | 39.38044 | -0.55652 | 36010 ft | 494 kts | 23° |
| 2026-05-06 13:37 | 39.44094 | -0.51437 | 35972 ft | 494 kts | 23° |
| 2026-05-06 13:38 | 39.50125 | -0.47169 | 35966 ft | 495 kts | 25° |
| 2026-05-06 13:38 | 39.55983 | -0.42431 | 35991 ft | 497 kts | 29° |
| 2026-05-06 13:39 | 39.61734 | -0.37430 | 36009 ft | 498 kts | 29° |
| 2026-05-06 13:39 | 39.67467 | -0.32526 | 35993 ft | 497 kts | 28° |
| 2026-05-06 13:40 | 39.73283 | -0.27693 | 35984 ft | 496 kts | 28° |
| 2026-05-06 13:40 | 39.79100 | -0.22869 | 35992 ft | 496 kts | 28° |
| 2026-05-06 13:41 | 39.84906 | -0.18009 | 36003 ft | 496 kts | 28° |
| 2026-05-06 13:41 | 39.90696 | -0.13128 | 35998 ft | 496 kts | 28° |
| 2026-05-06 13:42 | 39.96483 | -0.08235 | 35998 ft | 496 kts | 28° |
| 2026-05-06 13:42 | 40.02278 | -0.03350 | 35993 ft | 496 kts | 28° |
| 2026-05-06 13:43 | 40.08067 | 0.01541 | 36001 ft | 496 kts | 29° |
| 2026-05-06 13:43 | 40.13779 | 0.06610 | 35996 ft | 497 kts | 31° |
| 2026-05-06 13:44 | 40.19427 | 0.11820 | 35992 ft | 497 kts | 31° |
| 2026-05-06 13:44 | 40.25050 | 0.17002 | 35991 ft | 497 kts | 31° |
| 2026-05-06 13:45 | 40.30712 | 0.22160 | 35997 ft | 495 kts | 31° |
| 2026-05-06 13:45 | 40.39194 | 0.29881 | 35985 ft | 495 kts | 31° |
| 2026-05-06 13:46 | 40.44842 | 0.35045 | 35964 ft | 495 kts | 31° |
| 2026-05-06 13:46 | 40.47674 | 0.37641 | 35537 ft | 496 kts | 31° |
| 2026-05-06 13:46 | 40.50500 | 0.40237 | 34957 ft | 496 kts | 31° |
| 2026-05-06 13:47 | 40.53328 | 0.42839 | 34403 ft | 496 kts | 31° |
| 2026-05-06 13:47 | 40.56157 | 0.45442 | 33845 ft | 497 kts | 31° |
| 2026-05-06 13:47 | 40.58989 | 0.48049 | 33213 ft | 497 kts | 31° |
| 2026-05-06 13:47 | 40.61815 | 0.50654 | 32600 ft | 496 kts | 31° |
| 2026-05-06 13:48 | 40.64641 | 0.53259 | 31999 ft | 495 kts | 31° |
| 2026-05-06 13:48 | 40.67458 | 0.55862 | 31406 ft | 494 kts | 31° |
| 2026-05-06 13:48 | 40.70261 | 0.58458 | 30833 ft | 492 kts | 31° |
| 2026-05-06 13:48 | 40.73058 | 0.61050 | 30272 ft | 490 kts | 31° |
| 2026-05-06 13:49 | 40.75837 | 0.63624 | 29644 ft | 488 kts | 31° |
| 2026-05-06 13:49 | 40.78607 | 0.66192 | 29008 ft | 486 kts | 31° |
| 2026-05-06 13:49 | 40.81396 | 0.68778 | 28367 ft | 493 kts | 31° |
| 2026-05-06 13:49 | 40.84205 | 0.71387 | 27792 ft | 493 kts | 31° |
| 2026-05-06 13:50 | 40.86906 | 0.74178 | 27262 ft | 494 kts | 40° |
| 2026-05-06 13:50 | 40.89255 | 0.77474 | 26737 ft | 493 kts | 47° |
| 2026-05-06 13:50 | 40.91489 | 0.80902 | 26252 ft | 490 kts | 47° |
| 2026-05-06 13:50 | 40.93704 | 0.84308 | 25752 ft | 487 kts | 47° |
| 2026-05-06 13:51 | 40.95907 | 0.87693 | 25261 ft | 483 kts | 47° |
| 2026-05-06 13:51 | 40.98092 | 0.91053 | 24775 ft | 480 kts | 47° |
| 2026-05-06 13:51 | 41.00264 | 0.94392 | 24305 ft | 477 kts | 47° |
| 2026-05-06 13:51 | 41.02419 | 0.97704 | 23835 ft | 473 kts | 47° |
| 2026-05-06 13:52 | 41.04558 | 1.00998 | 23348 ft | 470 kts | 47° |
| 2026-05-06 13:52 | 41.06677 | 1.04271 | 22783 ft | 465 kts | 47° |
| 2026-05-06 13:52 | 41.08779 | 1.07525 | 22165 ft | 472 kts | 47° |
| 2026-05-06 13:52 | 41.10956 | 1.10888 | 21547 ft | 485 kts | 47° |
| 2026-05-06 13:53 | 41.13150 | 1.14277 | 20971 ft | 483 kts | 47° |
| 2026-05-06 13:53 | 41.15211 | 1.17765 | 20376 ft | 479 kts | 54° |
| 2026-05-06 13:53 | 41.17064 | 1.21342 | 19814 ft | 474 kts | 54° |
| 2026-05-06 13:53 | 41.18916 | 1.24929 | 19248 ft | 468 kts | 54° |
| 2026-05-06 13:54 | 41.20741 | 1.28471 | 18713 ft | 462 kts | 54° |
| 2026-05-06 13:54 | 41.22544 | 1.31969 | 18148 ft | 455 kts | 54° |
| 2026-05-06 13:54 | 41.24321 | 1.35413 | 17524 ft | 449 kts | 54° |
| 2026-05-06 13:54 | 41.26075 | 1.38813 | 16913 ft | 443 kts | 54° |
| 2026-05-06 13:55 | 41.27807 | 1.42173 | 16304 ft | 437 kts | 54° |
| 2026-05-06 13:55 | 41.29512 | 1.45485 | 15722 ft | 431 kts | 54° |
| 2026-05-06 13:55 | 41.31192 | 1.48763 | 15144 ft | 426 kts | 54° |
| 2026-05-06 13:55 | 41.32846 | 1.51999 | 14577 ft | 420 kts | 54° |
| 2026-05-06 13:56 | 41.34391 | 1.55277 | 14030 ft | 417 kts | 62° |
| 2026-05-06 13:56 | 41.35550 | 1.58790 | 13530 ft | 414 kts | 66° |
| 2026-05-06 13:56 | 41.36670 | 1.62305 | 13104 ft | 411 kts | 66° |
| 2026-05-06 13:56 | 41.37783 | 1.65799 | 12679 ft | 408 kts | 66° |
| 2026-05-06 13:57 | 41.38886 | 1.69271 | 12283 ft | 406 kts | 66° |
| 2026-05-06 13:57 | 41.39980 | 1.72724 | 11856 ft | 403 kts | 66° |
| 2026-05-06 13:57 | 41.41066 | 1.76160 | 11442 ft | 402 kts | 66° |
| 2026-05-06 13:57 | 41.42146 | 1.79576 | 11045 ft | 399 kts | 66° |
| 2026-05-06 13:58 | 41.43217 | 1.82972 | 10646 ft | 397 kts | 66° |
| 2026-05-06 13:58 | 41.44281 | 1.86358 | 10254 ft | 394 kts | 66° |
| 2026-05-06 13:58 | 41.45009 | 1.89818 | 9999 ft | 378 kts | 82° |
| 2026-05-06 13:58 | 41.45084 | 1.93163 | 9775 ft | 347 kts | 90° |
| 2026-05-06 13:59 | 41.45070 | 1.96271 | 9515 ft | 324 kts | 90° |
| 2026-05-06 13:59 | 41.45060 | 1.98219 | 9338 ft | 311 kts | 90° |
| 2026-05-06 13:59 | 41.45045 | 2.01075 | 9085 ft | 306 kts | 90° |
| 2026-05-06 13:59 | 41.45028 | 2.03885 | 8819 ft | 301 kts | 90° |
| 2026-05-06 14:00 | 41.45009 | 2.06662 | 8538 ft | 299 kts | 89° |
| 2026-05-06 14:00 | 41.44989 | 2.09435 | 8177 ft | 299 kts | 90° |
| 2026-05-06 14:00 | 41.44969 | 2.12201 | 7821 ft | 298 kts | 90° |
| 2026-05-06 14:00 | 41.44948 | 2.14963 | 7469 ft | 298 kts | 90° |
| 2026-05-06 14:01 | 41.44924 | 2.17723 | 7122 ft | 298 kts | 90° |
| 2026-05-06 14:01 | 41.44898 | 2.20485 | 6776 ft | 298 kts | 90° |
| 2026-05-06 14:01 | 41.44873 | 2.23240 | 6434 ft | 297 kts | 90° |
| 2026-05-06 14:01 | 41.44850 | 2.25987 | 6072 ft | 294 kts | 90° |
| 2026-05-06 14:02 | 41.44888 | 2.28652 | 5709 ft | 281 kts | 83° |
| 2026-05-06 14:02 | 41.45227 | 2.31156 | 5369 ft | 269 kts | 74° |
| 2026-05-06 14:02 | 41.45848 | 2.33463 | 5013 ft | 259 kts | 64° |
| 2026-05-06 14:02 | 41.46589 | 2.35601 | 4668 ft | 250 kts | 64° |
| 2026-05-06 14:03 | 41.47301 | 2.37681 | 4306 ft | 243 kts | 64° |
| 2026-05-06 14:03 | 41.47795 | 2.39787 | 4013 ft | 236 kts | 85° |
| 2026-05-06 14:03 | 41.47606 | 2.41891 | 3980 ft | 225 kts | 111° |
| 2026-05-06 14:03 | 41.46819 | 2.43622 | 3987 ft | 220 kts | 137° |
| 2026-05-06 14:04 | 41.45561 | 2.44724 | 3989 ft | 216 kts | 164° |
| 2026-05-06 14:04 | 41.44104 | 2.44969 | 3992 ft | 210 kts | 190° |
| 2026-05-06 14:04 | 41.42738 | 2.44365 | 3991 ft | 206 kts | 214° |
| 2026-05-06 14:04 | 41.41723 | 2.43064 | 3993 ft | 202 kts | 240° |
| 2026-05-06 14:05 | 41.41108 | 2.41387 | 3995 ft | 202 kts | 247° |
| 2026-05-06 14:05 | 41.40531 | 2.39669 | 3997 ft | 204 kts | 247° |
| 2026-05-06 14:05 | 41.39948 | 2.37944 | 3999 ft | 204 kts | 247° |
| 2026-05-06 14:05 | 41.39368 | 2.36230 | 3997 ft | 202 kts | 246° |
| 2026-05-06 14:06 | 41.38788 | 2.34517 | 3879 ft | 203 kts | 247° |
| 2026-05-06 14:06 | 41.38216 | 2.32830 | 3661 ft | 196 kts | 247° |
| 2026-05-06 14:06 | 41.37672 | 2.31226 | 3410 ft | 185 kts | 247° |
| 2026-05-06 14:06 | 41.37152 | 2.29694 | 3160 ft | 180 kts | 247° |
| 2026-05-06 14:07 | 41.36637 | 2.28178 | 2910 ft | 180 kts | 245° |
| 2026-05-06 14:07 | 41.36124 | 2.26665 | 2672 ft | 177 kts | 244° |
| 2026-05-06 14:07 | 41.35629 | 2.25207 | 2433 ft | 168 kts | 243° |
| 2026-05-06 14:07 | 41.35157 | 2.23818 | 2225 ft | 161 kts | 242° |
| 2026-05-06 14:08 | 41.34700 | 2.22478 | 1999 ft | 159 kts | 242° |
| 2026-05-06 14:08 | 41.34240 | 2.21128 | 1792 ft | 160 kts | 243° |
| 2026-05-06 14:08 | 41.33787 | 2.19797 | 1569 ft | 151 kts | 243° |
| 2026-05-06 14:08 | 41.33374 | 2.18581 | 1378 ft | 138 kts | 241° |
| 2026-05-06 14:09 | 41.32966 | 2.17444 | 1162 ft | 138 kts | 240° |
| 2026-05-06 14:09 | 41.32612 | 2.16262 | 1014 ft | 136 kts | 244° |
| 2026-05-06 14:09 | 41.32187 | 2.15138 | 809 ft | 137 kts | 246° |
| 2026-05-06 14:09 | 41.31831 | 2.13969 | 628 ft | 137 kts | 243° |
| 2026-05-06 14:10 | 41.31426 | 2.12834 | 424 ft | 137 kts | 243° |
| 2026-05-06 14:10 | 41.31035 | 2.11697 | 283 ft | 136 kts | 243° |
| 2026-05-06 14:10 | 41.30646 | 2.10553 | 109 ft | 135 kts | 242° |
| 2026-05-06 14:10 | 41.30260 | 2.09456 | 17 ft | 114 kts | 245° |
| 2026-05-06 14:11 | 41.30004 | 2.08711 | 23 ft | 64 kts | 245° |
| 2026-05-06 14:11 | 41.29867 | 2.08341 | 23 ft | 27 kts | 230° |
| 2026-05-06 14:11 | 41.29744 | 2.08227 | 18 ft | 15 kts | 212° |
| 2026-05-06 14:11 | 41.29651 | 2.08146 | 17 ft | 13 kts | 212° |
| 2026-05-06 14:12 | 41.29568 | 2.08065 | 16 ft | 12 kts | 181° |
| 2026-05-06 14:12 | 41.29500 | 2.08109 | 16 ft | 14 kts | 156° |
| 2026-05-06 14:12 | 41.29398 | 2.08170 | 19 ft | 16 kts | 155° |
| 2026-05-06 14:12 | 41.29320 | 2.08176 | 20 ft | 6 kts | 249° |
| 2026-05-06 14:13 | 41.29270 | 2.08159 | 19 ft | 11 kts | 180° |
| 2026-05-06 14:13 | 41.29229 | 2.08159 | 19 ft | 0 kts | 179° |